createdAt,value
2019-03-31T00:00:48.276Z,1015.3
2019-03-31T00:01:49.880Z,1015.3
2019-03-31T00:02:51.667Z,1015.2
2019-03-31T00:03:53.368Z,1015.2
2019-03-31T00:04:55.221Z,1015.3
2019-03-31T00:05:56.775Z,1015.2
2019-03-31T00:06:58.447Z,1015.2
2019-03-31T00:07:59.913Z,1015.2
2019-03-31T00:09:01.999Z,1015.3
2019-03-31T00:10:03.592Z,1015.3
2019-03-31T00:11:05.597Z,1015.2
2019-03-31T00:12:07.109Z,1015.3
2019-03-31T00:13:08.984Z,1015.2
2019-03-31T00:14:10.650Z,1015.3
2019-03-31T00:15:12.300Z,1015.3
2019-03-31T00:16:14.066Z,1015.3
2019-03-31T00:17:16.420Z,1015.3
2019-03-31T00:18:18.005Z,1015.3
2019-03-31T00:19:19.910Z,1015.3
2019-03-31T00:20:21.556Z,1015.3
2019-03-31T00:21:23.398Z,1015.2
2019-03-31T00:22:24.921Z,1015.3
2019-03-31T00:23:26.593Z,1015.2
2019-03-31T00:24:28.139Z,1015.3
2019-03-31T00:25:29.657Z,1015.3
2019-03-31T00:26:31.318Z,1015.3
2019-03-31T00:27:32.874Z,1015.3
2019-03-31T00:28:34.498Z,1015.3
2019-03-31T00:29:36.296Z,1015.3
2019-03-31T00:30:37.990Z,1015.3
2019-03-31T00:31:39.515Z,1015.3
2019-03-31T00:32:41.311Z,1015.3
2019-03-31T00:33:42.938Z,1015.3
2019-03-31T00:34:44.441Z,1015.3
2019-03-31T00:35:46.279Z,1015.3
2019-03-31T00:36:47.900Z,1015.3
2019-03-31T00:37:49.428Z,1015.3
2019-03-31T00:38:50.981Z,1015.3
2019-03-31T00:39:52.592Z,1015.3
2019-03-31T00:40:54.004Z,1015.2
2019-03-31T00:41:55.745Z,1015.3
2019-03-31T00:42:57.266Z,1015.3
2019-03-31T00:43:59.078Z,1015.3
2019-03-31T00:45:00.635Z,1015.3
2019-03-31T00:46:02.211Z,1015.2
2019-03-31T00:47:03.985Z,1015.3
2019-03-31T00:48:05.494Z,1015.3
2019-03-31T00:49:07.036Z,1015.3
2019-03-31T00:50:08.743Z,1015.3
2019-03-31T00:51:10.270Z,1015.4
2019-03-31T00:52:11.782Z,1015.3
2019-03-31T00:53:13.571Z,1015.3
2019-03-31T00:54:15.145Z,1015.3
2019-03-31T00:55:17.325Z,1015.3
2019-03-31T00:56:19.077Z,1015.3
2019-03-31T00:57:20.647Z,1015.3
2019-03-31T00:58:22.256Z,1015.3
2019-03-31T00:59:24.232Z,1015.3
2019-03-31T01:00:26.102Z,1015.4
2019-03-31T01:01:36.307Z,1015.3
2019-03-31T01:02:29.312Z,1015.4
2019-03-31T01:03:31.038Z,1015.3
2019-03-31T01:04:33.024Z,1015.3
2019-03-31T01:05:34.471Z,1015.4
2019-03-31T01:06:36.056Z,1015.4
2019-03-31T01:07:37.932Z,1015.5
2019-03-31T01:08:39.472Z,1015.5
2019-03-31T01:09:41.189Z,1015.5
2019-03-31T01:10:42.911Z,1015.5
2019-03-31T01:11:44.504Z,1015.5
2019-03-31T01:12:46.199Z,1015.5
2019-03-31T01:13:47.677Z,1015.4
2019-03-31T01:14:49.473Z,1015.5
2019-03-31T01:15:51.026Z,1015.5
2019-03-31T01:16:52.944Z,1015.5
2019-03-31T01:17:54.534Z,1015.4
2019-03-31T01:18:56.391Z,1015.5
2019-03-31T01:19:57.958Z,1015.5
2019-03-31T01:20:59.873Z,1015.5
2019-03-31T01:22:01.429Z,1015.5
2019-03-31T01:23:03.110Z,1015.5
2019-03-31T01:24:04.785Z,1015.5
2019-03-31T01:25:06.587Z,1015.6
2019-03-31T01:26:08.223Z,1015.5
2019-03-31T01:27:09.718Z,1015.4
2019-03-31T01:28:11.580Z,1015.5
2019-03-31T01:29:13.109Z,1015.5
2019-03-31T01:30:14.715Z,1015.5
2019-03-31T01:31:16.406Z,1015.4
2019-03-31T01:32:17.991Z,1015.5
2019-03-31T01:33:19.721Z,1015.4
2019-03-31T01:34:21.632Z,1015.4
2019-03-31T01:35:23.294Z,1015.5
2019-03-31T01:36:24.872Z,1015.4
2019-03-31T01:37:26.855Z,1015.4
2019-03-31T01:38:28.432Z,1015.5
2019-03-31T01:39:30.538Z,1015.5
2019-03-31T01:40:32.134Z,1015.5
2019-03-31T01:41:34.130Z,1015.5
2019-03-31T01:42:36.325Z,1015.5
2019-03-31T01:43:37.968Z,1015.5
2019-03-31T01:44:39.602Z,1015.5
2019-03-31T01:45:41.324Z,1015.5
2019-03-31T01:46:42.921Z,1015.5
2019-03-31T01:47:44.602Z,1015.5
2019-03-31T01:48:46.953Z,1015.5
2019-03-31T01:49:48.510Z,1015.5
2019-03-31T01:50:50.158Z,1015.5
2019-03-31T01:51:51.664Z,1015.5
2019-03-31T01:52:53.563Z,1015.5
2019-03-31T01:53:55.164Z,1015.5
2019-03-31T01:54:57.050Z,1015.5
2019-03-31T01:55:58.903Z,1015.5
2019-03-31T01:57:00.597Z,1015.5
2019-03-31T01:58:02.441Z,1015.5
2019-03-31T01:59:03.930Z,1015.5
2019-03-31T02:00:05.702Z,1015.5
2019-03-31T02:01:07.201Z,1015.5
2019-03-31T02:02:08.859Z,1015.5
2019-03-31T02:03:10.650Z,1015.6
2019-03-31T02:04:12.186Z,1015.6
2019-03-31T02:05:13.722Z,1015.6
2019-03-31T02:06:15.660Z,1015.6
2019-03-31T02:07:17.247Z,1015.6
2019-03-31T02:08:18.888Z,1015.6
2019-03-31T02:09:20.695Z,1015.5
2019-03-31T02:10:22.268Z,1015.6
2019-03-31T02:11:23.787Z,1015.6
2019-03-31T02:12:25.864Z,1015.6
2019-03-31T02:13:27.445Z,1015.6
2019-03-31T02:14:29.336Z,1015.6
2019-03-31T02:15:31.641Z,1015.7
2019-03-31T02:16:33.328Z,1015.6
2019-03-31T02:17:34.944Z,1015.7
2019-03-31T02:18:36.725Z,1015.7
2019-03-31T02:19:38.300Z,1015.7
2019-03-31T02:20:40.249Z,1015.7
2019-03-31T02:21:41.793Z,1015.7
2019-03-31T02:22:43.670Z,1015.7
2019-03-31T02:23:45.322Z,1015.8
2019-03-31T02:24:47.107Z,1015.6
2019-03-31T02:25:48.648Z,1015.6
2019-03-31T02:26:51.492Z,1015.6
2019-03-31T02:27:53.195Z,1015.6
2019-03-31T02:28:55.013Z,1015.6
2019-03-31T02:29:56.612Z,1015.7
2019-03-31T02:30:58.512Z,1015.6
2019-03-31T02:32:00.171Z,1015.6
2019-03-31T02:33:02.022Z,1015.6
2019-03-31T02:34:03.622Z,1015.6
2019-03-31T02:35:05.355Z,1015.6
2019-03-31T02:36:06.987Z,1015.6
2019-03-31T02:37:08.675Z,1015.5
2019-03-31T02:38:10.313Z,1015.6
2019-03-31T02:39:11.933Z,1015.6
2019-03-31T02:40:13.411Z,1015.6
2019-03-31T02:41:14.921Z,1015.6
2019-03-31T02:42:16.322Z,1015.6
2019-03-31T02:43:18.054Z,1015.6
2019-03-31T02:44:19.626Z,1015.6
2019-03-31T02:45:21.438Z,1015.5
2019-03-31T02:46:23.280Z,1015.5
2019-03-31T02:47:24.763Z,1015.6
2019-03-31T02:48:27.023Z,1015.5
2019-03-31T02:49:28.926Z,1015.6
2019-03-31T02:50:30.264Z,1015.5
2019-03-31T02:51:32.267Z,1015.6
2019-03-31T02:52:33.782Z,1015.6
2019-03-31T02:53:35.367Z,1015.6
2019-03-31T02:54:37.094Z,1015.6
2019-03-31T02:55:38.616Z,1015.6
2019-03-31T02:56:40.490Z,1015.6
2019-03-31T02:57:42.280Z,1015.6
2019-03-31T02:58:44.073Z,1015.7
2019-03-31T02:59:45.866Z,1015.7
2019-03-31T03:00:47.546Z,1015.7
2019-03-31T03:01:49.402Z,1015.8
2019-03-31T03:02:50.956Z,1015.8
2019-03-31T03:03:52.710Z,1015.8
2019-03-31T03:04:54.353Z,1015.8
2019-03-31T03:05:56.180Z,1015.8
2019-03-31T03:06:58.031Z,1015.8
2019-03-31T03:07:59.697Z,1015.7
2019-03-31T03:09:01.201Z,1015.7
2019-03-31T03:10:03.025Z,1015.7
2019-03-31T03:11:05.620Z,1015.7
2019-03-31T03:12:07.103Z,1015.8
2019-03-31T03:13:08.956Z,1015.8
2019-03-31T03:14:10.881Z,1015.8
2019-03-31T03:15:12.388Z,1015.8
2019-03-31T03:16:14.121Z,1015.7
2019-03-31T03:17:15.794Z,1015.8
2019-03-31T03:18:17.347Z,1015.7
2019-03-31T03:19:19.101Z,1015.8
2019-03-31T03:20:20.624Z,1015.8
2019-03-31T03:21:24.156Z,1015.7
2019-03-31T03:22:24.055Z,1015.7
2019-03-31T03:23:25.703Z,1015.8
2019-03-31T03:24:27.459Z,1015.7
2019-03-31T03:25:29.103Z,1015.7
2019-03-31T03:26:30.604Z,1015.7
2019-03-31T03:27:32.708Z,1015.7
2019-03-31T03:28:34.325Z,1015.8
2019-03-31T03:29:37.038Z,1015.8
2019-03-31T03:30:39.656Z,1015.8
2019-03-31T03:31:41.095Z,1015.7
2019-03-31T03:33:11.026Z,1015.7
2019-03-31T03:33:44.334Z,1015.8
2019-03-31T03:34:46.234Z,1015.8
2019-03-31T03:35:48.118Z,1015.8
2019-03-31T03:36:49.826Z,1015.9
2019-03-31T03:37:51.302Z,1015.8
2019-03-31T03:38:53.234Z,1015.8
2019-03-31T03:39:54.855Z,1015.8
2019-03-31T03:40:56.734Z,1015.8
2019-03-31T03:41:58.262Z,1015.9
2019-03-31T03:43:00.043Z,1015.9
2019-03-31T03:44:02.549Z,1015.9
2019-03-31T03:45:03.462Z,1015.9
2019-03-31T03:46:04.983Z,1015.9
2019-03-31T03:47:06.614Z,1015.9
2019-03-31T03:48:08.384Z,1016.0
2019-03-31T03:49:10.136Z,1016.0
2019-03-31T03:50:11.422Z,1016.0
2019-03-31T03:51:13.082Z,1016.1
2019-03-31T03:52:14.693Z,1016.0
2019-03-31T03:53:16.350Z,1016.0
2019-03-31T03:54:18.021Z,1016.0
2019-03-31T03:55:19.749Z,1016.0
2019-03-31T03:56:21.696Z,1016.0
2019-03-31T03:57:23.359Z,1016.0
2019-03-31T03:58:25.064Z,1016.1
2019-03-31T03:59:26.836Z,1016.0
2019-03-31T04:00:28.518Z,1016.1
2019-03-31T04:01:30.076Z,1016.1
2019-03-31T04:02:31.562Z,1016.1
2019-03-31T04:03:33.354Z,1016.1
2019-03-31T04:04:35.049Z,1016.1
2019-03-31T04:05:36.635Z,1016.1
2019-03-31T04:06:38.443Z,1016.1
2019-03-31T04:07:40.200Z,1016.1
2019-03-31T04:08:41.965Z,1016.1
2019-03-31T04:09:43.535Z,1016.2
2019-03-31T04:10:45.193Z,1016.2
2019-03-31T04:11:47.203Z,1016.2
2019-03-31T04:12:48.680Z,1016.2
2019-03-31T04:13:50.340Z,1016.1
2019-03-31T04:14:52.334Z,1016.2
2019-03-31T04:15:53.921Z,1016.1
2019-03-31T04:16:55.464Z,1016.2
2019-03-31T04:17:57.532Z,1016.2
2019-03-31T04:18:59.208Z,1016.2
2019-03-31T04:20:00.673Z,1016.1
2019-03-31T04:21:02.446Z,1016.2
2019-03-31T04:22:04.019Z,1016.2
2019-03-31T04:23:05.602Z,1016.2
2019-03-31T04:24:07.452Z,1016.2
2019-03-31T04:25:09.063Z,1016.2
2019-03-31T04:26:10.559Z,1016.2
2019-03-31T04:27:12.466Z,1016.2
2019-03-31T04:28:13.987Z,1016.2
2019-03-31T04:29:15.914Z,1016.2
2019-03-31T04:30:17.789Z,1016.2
2019-03-31T04:31:19.547Z,1016.2
2019-03-31T04:32:21.092Z,1016.2
2019-03-31T04:33:22.530Z,1016.2
2019-03-31T04:34:24.206Z,1016.3
2019-03-31T04:35:25.608Z,1016.3
2019-03-31T04:36:27.434Z,1016.2
2019-03-31T04:37:29.183Z,1016.3
2019-03-31T04:38:30.684Z,1016.3
2019-03-31T04:39:32.287Z,1016.3
2019-03-31T04:40:34.153Z,1016.3
2019-03-31T04:41:35.626Z,1016.3
2019-03-31T04:42:37.215Z,1016.3
2019-03-31T04:43:39.133Z,1016.3
2019-03-31T04:44:40.854Z,1016.3
2019-03-31T04:45:42.623Z,1016.3
2019-03-31T04:46:44.306Z,1016.3
2019-03-31T04:47:46.200Z,1016.3
2019-03-31T04:48:47.827Z,1016.3
2019-03-31T04:49:49.633Z,1016.2
2019-03-31T04:50:52.255Z,1016.2
2019-03-31T04:51:53.252Z,1016.2
2019-03-31T04:52:55.061Z,1016.3
2019-03-31T04:53:56.779Z,1016.3
2019-03-31T04:54:58.370Z,1016.3
2019-03-31T04:56:00.314Z,1016.3
2019-03-31T04:57:04.381Z,1016.4
2019-03-31T04:58:03.977Z,1016.4
2019-03-31T04:59:05.667Z,1016.4
2019-03-31T05:00:08.101Z,1016.5
2019-03-31T05:01:09.767Z,1016.5
2019-03-31T05:02:11.644Z,1016.5
2019-03-31T05:03:13.188Z,1016.5
2019-03-31T05:04:15.198Z,1016.5
2019-03-31T05:05:16.771Z,1016.5
2019-03-31T05:06:18.643Z,1016.6
2019-03-31T05:07:20.292Z,1016.6
2019-03-31T05:08:22.268Z,1016.6
2019-03-31T05:09:23.810Z,1016.7
2019-03-31T05:10:25.584Z,1016.6
2019-03-31T05:11:27.244Z,1016.7
2019-03-31T05:12:29.146Z,1016.7
2019-03-31T05:13:30.825Z,1016.7
2019-03-31T05:14:32.583Z,1016.7
2019-03-31T05:15:34.210Z,1016.6
2019-03-31T05:16:35.986Z,1016.6
2019-03-31T05:17:37.745Z,1016.6
2019-03-31T05:18:39.227Z,1016.7
2019-03-31T05:19:40.920Z,1016.6
2019-03-31T05:20:42.490Z,1016.6
2019-03-31T05:21:43.983Z,1016.6
2019-03-31T05:22:45.993Z,1016.7
2019-03-31T05:23:47.552Z,1016.7
2019-03-31T05:24:49.119Z,1016.7
2019-03-31T05:25:50.761Z,1016.7
2019-03-31T05:26:52.369Z,1016.8
2019-03-31T05:27:54.031Z,1016.8
2019-03-31T05:28:55.751Z,1016.8
2019-03-31T05:29:57.362Z,1016.8
2019-03-31T05:30:59.194Z,1016.9
2019-03-31T05:32:00.877Z,1016.9
2019-03-31T05:33:02.509Z,1016.9
2019-03-31T05:34:18.102Z,1017.0
2019-03-31T05:35:05.873Z,1016.9
2019-03-31T05:36:07.588Z,1017.0
2019-03-31T05:37:09.468Z,1017.0
2019-03-31T05:38:11.067Z,1017.0
2019-03-31T05:39:12.708Z,1016.9
2019-03-31T05:40:14.596Z,1017.0
2019-03-31T05:41:16.274Z,1017.0
2019-03-31T05:42:17.792Z,1017.0
2019-03-31T05:43:19.550Z,1017.0
2019-03-31T05:44:21.276Z,1017.0
2019-03-31T05:45:24.100Z,1017.1
2019-03-31T05:46:25.787Z,1017.1
2019-03-31T05:47:27.600Z,1017.1
2019-03-31T05:48:29.239Z,1017.1
2019-03-31T05:49:30.914Z,1017.1
2019-03-31T05:50:32.588Z,1017.1
2019-03-31T05:51:34.127Z,1017.1
2019-03-31T05:52:35.771Z,1017.1
2019-03-31T05:53:37.445Z,1017.1
2019-03-31T05:54:38.978Z,1017.2
2019-03-31T05:55:40.530Z,1017.2
2019-03-31T05:56:42.344Z,1017.2
2019-03-31T05:57:44.064Z,1017.2
2019-03-31T05:58:45.742Z,1017.2
2019-03-31T05:59:47.536Z,1017.3
2019-03-31T06:00:49.202Z,1017.3
2019-03-31T06:01:51.003Z,1017.3
2019-03-31T06:02:52.444Z,1017.4
2019-03-31T06:03:54.229Z,1017.3
2019-03-31T06:04:55.953Z,1017.4
2019-03-31T06:05:57.731Z,1017.4
2019-03-31T06:06:59.257Z,1017.4
2019-03-31T06:08:01.067Z,1017.4
2019-03-31T06:09:02.764Z,1017.4
2019-03-31T06:10:04.384Z,1017.5
2019-03-31T06:11:06.254Z,1017.4
2019-03-31T06:12:07.891Z,1017.5
2019-03-31T06:13:09.467Z,1017.5
2019-03-31T06:14:11.397Z,1017.5
2019-03-31T06:15:14.003Z,1017.5
2019-03-31T06:16:15.423Z,1017.6
2019-03-31T06:17:17.199Z,1017.6
2019-03-31T06:18:18.724Z,1017.7
2019-03-31T06:19:22.355Z,1017.7
2019-03-31T06:20:24.837Z,1017.7
2019-03-31T06:21:29.073Z,1017.7
2019-03-31T06:22:28.047Z,1017.7
2019-03-31T06:23:29.595Z,1017.7
2019-03-31T06:24:31.390Z,1017.7
2019-03-31T06:25:33.052Z,1017.8
2019-03-31T06:26:34.851Z,1017.8
2019-03-31T06:27:36.331Z,1017.8
2019-03-31T06:28:38.138Z,1017.8
2019-03-31T06:29:39.747Z,1017.8
2019-03-31T06:30:41.488Z,1017.8
2019-03-31T06:31:44.071Z,1017.8
2019-03-31T06:32:46.985Z,1017.8
2019-03-31T06:33:48.461Z,1017.8
2019-03-31T06:34:50.328Z,1017.8
2019-03-31T06:35:51.839Z,1017.8
2019-03-31T06:36:53.558Z,1017.9
2019-03-31T06:37:55.028Z,1017.9
2019-03-31T06:38:56.805Z,1017.9
2019-03-31T06:39:58.489Z,1017.9
2019-03-31T06:41:00.153Z,1017.9
2019-03-31T06:42:01.584Z,1017.9
2019-03-31T06:43:03.424Z,1018.0
2019-03-31T06:44:04.962Z,1018.0
2019-03-31T06:45:06.716Z,1018.0
2019-03-31T06:46:08.304Z,1018.0
2019-03-31T06:47:10.723Z,1018.1
2019-03-31T06:48:12.373Z,1018.0
2019-03-31T06:49:14.312Z,1018.0
2019-03-31T06:50:15.857Z,1018.0
2019-03-31T06:51:17.664Z,1018.0
2019-03-31T06:52:19.201Z,1018.0
2019-03-31T06:53:20.892Z,1018.1
2019-03-31T06:54:22.455Z,1018.1
2019-03-31T06:55:24.155Z,1018.1
2019-03-31T06:56:26.272Z,1018.1
2019-03-31T06:57:27.954Z,1018.1
2019-03-31T06:58:29.546Z,1018.1
2019-03-31T06:59:31.564Z,1018.2
2019-03-31T07:00:33.064Z,1018.1
2019-03-31T07:01:35.011Z,1018.2
2019-03-31T07:02:36.643Z,1018.2
2019-03-31T07:03:38.588Z,1018.2
2019-03-31T07:04:40.358Z,1018.3
2019-03-31T07:05:42.248Z,1018.2
2019-03-31T07:06:43.817Z,1018.3
2019-03-31T07:07:45.647Z,1018.3
2019-03-31T07:08:47.285Z,1018.3
2019-03-31T07:09:48.921Z,1018.3
2019-03-31T07:10:50.826Z,1018.4
2019-03-31T07:11:52.455Z,1018.3
2019-03-31T07:12:54.067Z,1018.4
2019-03-31T07:13:55.941Z,1018.4
2019-03-31T07:14:57.537Z,1018.4
2019-03-31T07:15:59.216Z,1018.5
2019-03-31T07:17:01.173Z,1018.5
2019-03-31T07:18:02.741Z,1018.5
2019-03-31T07:19:04.630Z,1018.5
2019-03-31T07:20:06.191Z,1018.5
2019-03-31T07:21:07.889Z,1018.5
2019-03-31T07:22:09.722Z,1018.5
2019-03-31T07:23:11.428Z,1018.5
2019-03-31T07:24:13.007Z,1018.5
2019-03-31T07:25:14.920Z,1018.5
2019-03-31T07:26:16.585Z,1018.5
2019-03-31T07:27:18.206Z,1018.6
2019-03-31T07:28:20.003Z,1018.6
2019-03-31T07:29:21.759Z,1018.6
2019-03-31T07:30:23.438Z,1018.6
2019-03-31T07:31:25.429Z,1018.7
2019-03-31T07:32:27.349Z,1018.7
2019-03-31T07:33:29.107Z,1018.7
2019-03-31T07:34:30.951Z,1018.7
2019-03-31T07:35:32.587Z,1018.7
2019-03-31T07:36:34.221Z,1018.7
2019-03-31T07:37:46.537Z,1018.8
2019-03-31T07:38:39.226Z,1018.7
2019-03-31T07:39:39.587Z,1018.8
2019-03-31T07:40:41.707Z,1018.8
2019-03-31T07:41:43.461Z,1018.8
2019-03-31T07:42:44.653Z,1018.8
2019-03-31T07:43:46.576Z,1018.9
2019-03-31T07:44:48.211Z,1018.9
2019-03-31T07:45:49.806Z,1018.8
2019-03-31T07:46:51.666Z,1018.8
2019-03-31T07:47:53.289Z,1018.9
2019-03-31T07:48:55.131Z,1018.8
2019-03-31T07:49:56.799Z,1018.8
2019-03-31T07:50:58.471Z,1018.8
2019-03-31T07:52:00.406Z,1018.8
2019-03-31T07:53:01.921Z,1018.9
2019-03-31T07:54:03.616Z,1018.8
2019-03-31T07:55:05.482Z,1018.8
2019-03-31T07:56:07.175Z,1018.8
2019-03-31T07:57:08.980Z,1018.9
2019-03-31T07:58:10.651Z,1018.8
2019-03-31T07:59:12.438Z,1018.8
2019-03-31T08:00:15.583Z,1018.8
2019-03-31T08:01:18.448Z,1018.8
2019-03-31T08:02:21.943Z,1018.8
2019-03-31T08:03:23.858Z,1018.8
2019-03-31T08:04:25.382Z,1018.8
2019-03-31T08:05:32.847Z,1018.8
2019-03-31T08:06:28.619Z,1018.8
2019-03-31T08:07:30.156Z,1018.8
2019-03-31T08:08:31.929Z,1018.8
2019-03-31T08:09:33.474Z,1018.8
2019-03-31T08:10:35.064Z,1018.8
2019-03-31T08:11:36.801Z,1018.8
2019-03-31T08:12:38.268Z,1018.8
2019-03-31T08:13:39.784Z,1018.8
2019-03-31T08:14:41.573Z,1018.8
2019-03-31T08:15:43.100Z,1018.8
2019-03-31T08:16:44.620Z,1018.8
2019-03-31T08:17:46.503Z,1018.8
2019-03-31T08:18:48.080Z,1018.8
2019-03-31T08:19:49.619Z,1018.8
2019-03-31T08:20:51.215Z,1018.8
2019-03-31T08:21:52.797Z,1018.8
2019-03-31T08:22:56.980Z,1018.8
2019-03-31T08:23:56.025Z,1018.9
2019-03-31T08:24:57.537Z,1018.9
2019-03-31T08:25:59.091Z,1018.9
2019-03-31T08:27:00.717Z,1018.9
2019-03-31T08:28:02.107Z,1018.9
2019-03-31T08:29:03.808Z,1018.9
2019-03-31T08:30:05.374Z,1018.9
2019-03-31T08:31:06.838Z,1018.9
2019-03-31T08:32:08.647Z,1019.0
2019-03-31T08:33:10.253Z,1019.0
2019-03-31T08:34:11.986Z,1018.9
2019-03-31T08:35:13.572Z,1018.9
2019-03-31T08:36:15.160Z,1019.0
2019-03-31T08:37:16.990Z,1018.9
2019-03-31T08:38:18.609Z,1019.0
2019-03-31T08:39:20.253Z,1019.0
2019-03-31T08:40:22.119Z,1019.0
2019-03-31T08:41:23.763Z,1019.0
2019-03-31T08:42:25.453Z,1019.0
2019-03-31T08:43:27.254Z,1019.1
2019-03-31T08:44:28.907Z,1019.0
2019-03-31T08:45:30.590Z,1019.0
2019-03-31T08:46:32.148Z,1019.0
2019-03-31T08:47:33.549Z,1019.1
2019-03-31T08:48:35.275Z,1019.1
2019-03-31T08:49:36.719Z,1019.2
2019-03-31T08:50:38.344Z,1019.2
2019-03-31T08:51:39.781Z,1019.3
2019-03-31T08:52:41.475Z,1019.3
2019-03-31T08:53:42.974Z,1019.3
2019-03-31T08:54:46.238Z,1019.6
2019-03-31T08:55:47.957Z,1019.4
2019-03-31T08:56:51.962Z,1019.6
2019-03-31T08:57:54.332Z,1019.5
2019-03-31T08:59:35.589Z,1019.5
2019-03-31T09:01:17.985Z,1019.9
2019-03-31T09:02:21.326Z,1019.9
2019-03-31T09:03:25.460Z,1019.9
2019-03-31T09:04:27.133Z,1020.0
2019-03-31T09:06:11.742Z,1019.7
2019-03-31T09:07:13.129Z,1019.9
2019-03-31T09:08:14.530Z,1019.8
2019-03-31T09:09:15.932Z,1020.1
2019-03-31T09:10:17.341Z,1020.1
2019-03-31T09:11:18.753Z,1020.2
2019-03-31T09:12:20.260Z,1019.9
2019-03-31T09:13:21.667Z,1019.8
2019-03-31T09:14:23.347Z,1019.8
2019-03-31T09:15:24.754Z,1019.8
2019-03-31T09:16:26.433Z,1019.8
2019-03-31T09:17:27.838Z,1019.8
2019-03-31T09:18:29.514Z,1019.7
2019-03-31T09:19:30.920Z,1019.7
2019-03-31T09:20:32.605Z,1020.0
2019-03-31T09:21:34.009Z,1020.1
2019-03-31T09:22:35.406Z,1020.3
2019-03-31T09:23:36.925Z,1020.0
2019-03-31T09:24:38.331Z,1020.2
2019-03-31T09:25:39.738Z,1020.4
2019-03-31T09:26:41.252Z,1019.8
2019-03-31T09:27:42.655Z,1020.0
2019-03-31T09:28:44.054Z,1020.0
2019-03-31T09:29:45.575Z,1019.8
2019-03-31T09:30:46.980Z,1019.7
2019-03-31T09:31:48.384Z,1020.1
2019-03-31T09:32:49.890Z,1020.1
2019-03-31T09:33:51.358Z,1019.8
2019-03-31T09:34:52.766Z,1019.8
2019-03-31T09:35:54.410Z,1019.8
2019-03-31T09:36:55.819Z,1019.6
2019-03-31T09:37:57.219Z,1019.9
2019-03-31T09:38:58.735Z,1019.8
2019-03-31T09:40:00.377Z,1019.7
2019-03-31T09:41:01.508Z,1019.7
2019-03-31T09:42:03.055Z,1019.8
2019-03-31T09:43:04.589Z,1019.8
2019-03-31T09:44:05.823Z,1019.7
2019-03-31T09:45:07.378Z,1019.7
2019-03-31T09:46:08.780Z,1019.8
2019-03-31T09:47:10.187Z,1019.9
2019-03-31T09:48:11.698Z,1019.9
2019-03-31T09:49:13.104Z,1019.8
2019-03-31T09:50:17.312Z,1019.8
2019-03-31T09:51:16.148Z,1019.9
2019-03-31T09:52:17.559Z,1019.8
2019-03-31T09:53:19.104Z,1019.9
2019-03-31T09:54:20.506Z,1019.8
2019-03-31T09:55:23.208Z,1019.8
2019-03-31T09:56:23.426Z,1019.8
2019-03-31T09:57:24.828Z,1019.9
2019-03-31T09:58:26.513Z,1019.9
2019-03-31T09:59:27.942Z,1019.9
2019-03-31T10:00:29.643Z,1020.0
2019-03-31T10:01:31.006Z,1019.9
2019-03-31T10:02:32.368Z,1019.9
2019-03-31T10:03:33.927Z,1019.8
2019-03-31T10:04:35.322Z,1019.8
2019-03-31T10:05:36.726Z,1019.8
2019-03-31T10:06:38.240Z,1019.8
2019-03-31T10:07:39.641Z,1019.8
2019-03-31T10:08:41.325Z,1019.8
2019-03-31T10:09:42.728Z,1019.7
2019-03-31T10:10:44.415Z,1019.7
2019-03-31T10:11:45.813Z,1019.7
2019-03-31T10:12:47.220Z,1019.7
2019-03-31T10:13:48.827Z,1019.7
2019-03-31T10:14:50.217Z,1019.7
2019-03-31T10:15:51.642Z,1019.8
2019-03-31T10:16:53.259Z,1019.7
2019-03-31T10:17:54.664Z,1019.7
2019-03-31T10:18:56.344Z,1019.7
2019-03-31T10:19:57.749Z,1019.7
2019-03-31T10:20:59.499Z,1019.7
2019-03-31T10:22:00.838Z,1019.7
2019-03-31T10:23:02.245Z,1019.7
2019-03-31T10:24:03.755Z,1019.8
2019-03-31T10:25:05.161Z,1019.8
2019-03-31T10:26:06.560Z,1019.9
2019-03-31T10:27:08.087Z,1019.9
2019-03-31T10:28:09.473Z,1019.8
2019-03-31T10:29:11.158Z,1019.8
2019-03-31T10:30:12.579Z,1019.9
2019-03-31T10:31:14.245Z,1020.0
2019-03-31T10:32:15.685Z,1020.1
2019-03-31T10:33:17.057Z,1020.1
2019-03-31T10:34:18.566Z,1020.1
2019-03-31T10:35:20.064Z,1020.1
2019-03-31T10:36:21.445Z,1020.1
2019-03-31T10:37:23.128Z,1020.1
2019-03-31T10:38:24.532Z,1020.2
2019-03-31T10:39:25.939Z,1020.2
2019-03-31T10:40:27.637Z,1020.2
2019-03-31T10:41:31.003Z,1020.2
2019-03-31T10:42:30.456Z,1020.2
2019-03-31T10:43:32.165Z,1020.1
2019-03-31T10:44:33.699Z,1020.2
2019-03-31T10:45:35.106Z,1020.3
2019-03-31T10:46:36.691Z,1020.4
2019-03-31T10:47:38.217Z,1020.4
2019-03-31T10:48:39.644Z,1020.4
2019-03-31T10:49:41.400Z,1020.3
2019-03-31T10:50:43.048Z,1020.1
2019-03-31T10:51:44.611Z,1020.1
2019-03-31T10:52:46.335Z,1020.0
2019-03-31T10:53:47.890Z,1020.0
2019-03-31T10:54:49.562Z,1020.0
2019-03-31T10:55:51.388Z,1019.9
2019-03-31T10:56:52.953Z,1019.9
2019-03-31T10:57:54.565Z,1019.9
2019-03-31T10:58:56.389Z,1019.9
2019-03-31T10:59:58.018Z,1019.9
2019-03-31T11:00:59.734Z,1019.9
2019-03-31T11:02:01.291Z,1019.9
2019-03-31T11:03:03.060Z,1019.9
2019-03-31T11:04:04.725Z,1019.8
2019-03-31T11:05:06.561Z,1019.9
2019-03-31T11:06:08.146Z,1019.9
2019-03-31T11:07:09.995Z,1019.9
2019-03-31T11:08:11.608Z,1020.1
2019-03-31T11:09:13.233Z,1020.2
2019-03-31T11:10:15.049Z,1020.2
2019-03-31T11:11:16.607Z,1020.1
2019-03-31T11:12:18.357Z,1020.2
2019-03-31T11:13:20.104Z,1020.1
2019-03-31T11:14:21.598Z,1020.0
2019-03-31T11:15:23.935Z,1020.0
2019-03-31T11:16:26.702Z,1020.1
2019-03-31T11:17:29.041Z,1020.2
2019-03-31T11:18:31.625Z,1020.2
2019-03-31T11:19:47.196Z,1020.0
2019-03-31T11:20:54.962Z,1020.0
2019-03-31T11:21:57.793Z,1020.1
2019-03-31T11:22:59.956Z,1020.1
2019-03-31T11:24:01.483Z,1020.2
2019-03-31T11:25:56.428Z,1020.2
2019-03-31T11:26:59.215Z,1020.0
2019-03-31T11:28:07.680Z,1020.0
2019-03-31T11:29:10.808Z,1020.0
2019-03-31T11:30:12.139Z,1020.0
2019-03-31T11:31:13.910Z,1019.9
2019-03-31T11:32:15.545Z,1020.0
2019-03-31T11:33:17.488Z,1019.9
2019-03-31T11:34:19.788Z,1020.0
2019-03-31T11:35:20.816Z,1019.9
2019-03-31T11:36:22.507Z,1019.9
2019-03-31T11:37:24.888Z,1020.0
2019-03-31T11:38:27.094Z,1020.0
2019-03-31T11:39:28.567Z,1019.9
2019-03-31T11:40:30.217Z,1019.9
2019-03-31T11:41:31.855Z,1019.9
2019-03-31T11:42:33.514Z,1019.9
2019-03-31T11:43:35.250Z,1019.9
2019-03-31T11:44:36.847Z,1019.9
2019-03-31T11:45:38.750Z,1019.8
2019-03-31T11:46:40.337Z,1019.9
2019-03-31T11:47:42.377Z,1019.9
2019-03-31T11:48:43.986Z,1019.9
2019-03-31T11:49:45.748Z,1019.9
2019-03-31T11:50:47.440Z,1019.9
2019-03-31T11:51:49.283Z,1019.8
2019-03-31T11:52:50.885Z,1019.8
2019-03-31T11:53:52.693Z,1019.8
2019-03-31T11:54:54.262Z,1019.8
2019-03-31T11:55:55.929Z,1020.0
2019-03-31T11:56:57.457Z,1019.9
2019-03-31T11:57:59.313Z,1019.9
2019-03-31T11:59:00.953Z,1019.9
2019-03-31T12:00:02.604Z,1019.9
2019-03-31T12:01:04.446Z,1019.8
2019-03-31T12:02:06.154Z,1019.9
2019-03-31T12:03:07.746Z,1019.9
2019-03-31T12:04:09.648Z,1019.9
2019-03-31T12:05:11.434Z,1019.9
2019-03-31T12:06:13.072Z,1019.9
2019-03-31T12:07:27.341Z,1019.9
2019-03-31T12:08:16.570Z,1019.9
2019-03-31T12:09:18.208Z,1020.0
2019-03-31T12:10:20.293Z,1020.0
2019-03-31T12:11:21.752Z,1020.1
2019-03-31T12:12:23.572Z,1020.0
2019-03-31T12:13:25.206Z,1019.9
2019-03-31T12:14:26.896Z,1020.0
2019-03-31T12:15:28.718Z,1020.0
2019-03-31T12:16:30.398Z,1019.9
2019-03-31T12:17:32.081Z,1020.0
2019-03-31T12:18:33.928Z,1020.0
2019-03-31T12:19:35.506Z,1020.0
2019-03-31T12:20:37.256Z,1020.0
2019-03-31T12:21:38.778Z,1020.0
2019-03-31T12:22:40.762Z,1020.0
2019-03-31T12:23:42.308Z,1019.9
2019-03-31T12:24:44.103Z,1019.9
2019-03-31T12:25:45.803Z,1019.9
2019-03-31T12:26:47.595Z,1019.9
2019-03-31T12:27:49.275Z,1019.9
2019-03-31T12:28:50.978Z,1020.0
2019-03-31T12:29:52.719Z,1019.9
2019-03-31T12:30:54.430Z,1020.0
2019-03-31T12:31:56.142Z,1020.1
2019-03-31T12:32:57.928Z,1020.2
2019-03-31T12:33:59.521Z,1020.1
2019-03-31T12:35:01.188Z,1020.2
2019-03-31T12:36:03.082Z,1020.0
2019-03-31T12:37:04.732Z,1019.9
2019-03-31T12:38:06.439Z,1020.0
2019-03-31T12:39:08.204Z,1020.0
2019-03-31T12:40:09.810Z,1019.9
2019-03-31T12:41:11.705Z,1020.0
2019-03-31T12:42:13.313Z,1019.9
2019-03-31T12:43:15.074Z,1019.8
2019-03-31T12:44:16.614Z,1019.7
2019-03-31T12:45:18.181Z,1019.7
2019-03-31T12:46:19.825Z,1019.7
2019-03-31T12:47:21.390Z,1019.7
2019-03-31T12:48:22.947Z,1019.8
2019-03-31T12:49:24.724Z,1019.7
2019-03-31T12:50:26.274Z,1019.8
2019-03-31T12:51:27.792Z,1019.7
2019-03-31T12:52:29.491Z,1019.8
2019-03-31T12:53:30.897Z,1019.8